Time;durP1;ratioP1;P1;durP2;ratioP2;P2;SDS_P1;SDS_P2;PMS_P1;PMS_P2;Temp;Humidity;BMP_temperature;BMP_pressure;BME280_temperature;BME280_humidity;BME280_pressure;Samples;Min_cycle;Max_cycle;Signal;HPM_P1;HPM_P2
2021/08/16 00:00:32;;;;;;;13.35;6.53;;;;;;;;;;5034506;28;20033;-86
2021/08/16 00:02:58;;;;;;;9.80;5.20;;;;;;;;;;5034343;28;20021;-88
2021/08/16 00:05:23;;;;;;;9.48;3.97;;;;;;;;;;5034218;28;20385;-87
2021/08/16 00:07:49;;;;;;;8.82;6.15;;;;;;;;;;5034628;28;20528;-86
2021/08/16 00:10:15;;;;;;;9.32;6.13;;;;;;;;;;5016534;28;20026;-87
2021/08/16 00:12:49;;;;;;;7.78;5.10;;;;;;;;;;5034161;28;20080;-88
2021/08/16 00:15:14;;;;;;;8.48;6.75;;;;;;;;;;5016495;28;20021;-88
2021/08/16 00:17:40;;;;;;;8.43;4.15;;;;;;;;;;5034807;28;20042;-88
2021/08/16 00:20:07;;;;;;;7.68;4.50;;;;;;;;;;5017220;28;20030;-89
2021/08/16 00:22:34;;;;;;;8.75;4.78;;;;;;;;;;5034726;28;20056;-89
2021/08/16 00:24:59;;;;;;;7.40;4.70;;;;;;;;;;5016316;28;20067;-89
2021/08/16 00:27:25;;;;;;;8.18;5.95;;;;;;;;;;5016259;28;20025;-90
2021/08/16 00:29:51;;;;;;;8.63;4.68;;;;;;;;;;5034068;28;20107;-88
2021/08/16 00:32:19;;;;;;;6.57;4.93;;;;;;;;;;5034194;28;20552;-88
2021/08/16 00:34:44;;;;;;;7.90;6.13;;;;;;;;;;5016125;28;20416;-88
2021/08/16 00:37:10;;;;;;;6.32;3.63;;;;;;;;;;5033871;28;20025;-88
2021/08/16 00:39:36;;;;;;;9.63;4.78;;;;;;;;;;5033822;28;20025;-88
2021/08/16 00:42:01;;;;;;;10.30;4.50;;;;;;;;;;5033666;28;20417;-88
2021/08/16 00:44:27;;;;;;;6.30;4.20;;;;;;;;;;5015975;28;20033;-90
2021/08/16 00:46:53;;;;;;;9.05;5.65;;;;;;;;;;5016238;28;20034;-88
2021/08/16 00:49:19;;;;;;;7.95;3.50;;;;;;;;;;5015814;28;20420;-90
2021/08/16 00:51:45;;;;;;;8.18;4.60;;;;;;;;;;5033952;28;20029;-89
2021/08/16 00:54:10;;;;;;;9.10;5.88;;;;;;;;;;5016076;28;20033;-88
2021/08/16 00:56:38;;;;;;;8.88;6.10;;;;;;;;;;5033786;28;20026;-88
2021/08/16 00:59:11;;;;;;;13.27;7.18;;;;;;;;;;5033932;28;20026;-87
2021/08/16 01:01:36;;;;;;;8.30;6.47;;;;;;;;;;5015791;28;20025;-88
2021/08/16 01:04:02;;;;;;;8.50;5.53;;;;;;;;;;5033626;28;20378;-88
2021/08/16 01:06:29;;;;;;;7.25;4.88;;;;;;;;;;5015884;28;20033;-87
2021/08/16 01:08:55;;;;;;;6.03;4.07;;;;;;;;;;5035310;28;20021;-88
2021/08/16 01:11:21;;;;;;;8.45;4.97;;;;;;;;;;5037890;28;20458;-88
2021/08/16 01:13:48;;;;;;;8.68;6.35;;;;;;;;;;5037522;28;20029;-89
2021/08/16 01:16:15;;;;;;;7.90;4.13;;;;;;;;;;5020734;28;20037;-88
2021/08/16 01:18:43;;;;;;;9.85;5.53;;;;;;;;;;5037563;28;20558;-88
2021/08/16 01:21:14;;;;;;;6.50;5.70;;;;;;;;;;5019858;28;20091;-88
2021/08/16 01:23:40;;;;;;;7.97;6.07;;;;;;;;;;5040560;28;20025;-87
2021/08/16 01:26:06;;;;;;;7.43;4.05;;;;;;;;;;5037396;28;20036;-84
2021/08/16 01:28:32;;;;;;;6.50;4.82;;;;;;;;;;5019569;28;20030;-87
2021/08/16 01:31:01;;;;;;;6.25;4.53;;;;;;;;;;5019633;28;20435;-87
2021/08/16 01:33:28;;;;;;;8.73;6.05;;;;;;;;;;5037318;28;20030;-88
2021/08/16 01:35:54;;;;;;;7.32;6.50;;;;;;;;;;5037343;28;20412;-89
2021/08/16 01:38:22;;;;;;;7.05;4.85;;;;;;;;;;5037397;28;20068;-89
2021/08/16 01:40:48;;;;;;;8.07;6.80;;;;;;;;;;5037305;28;20034;-89
2021/08/16 01:43:14;;;;;;;9.05;6.07;;;;;;;;;;5037029;28;20029;-91
2021/08/16 01:45:39;;;;;;;6.00;4.28;;;;;;;;;;5037083;28;20025;-90
2021/08/16 01:48:06;;;;;;;6.15;4.85;;;;;;;;;;5036972;28;20021;-90
2021/08/16 01:50:32;;;;;;;7.93;3.85;;;;;;;;;;5037036;28;20030;-90
2021/08/16 01:52:57;;;;;;;9.73;5.60;;;;;;;;;;5020374;28;20029;-90
2021/08/16 01:55:23;;;;;;;5.95;5.25;;;;;;;;;;5019173;28;20433;-91
2021/08/16 01:57:49;;;;;;;9.13;6.28;;;;;;;;;;5036932;28;20049;-90
2021/08/16 02:00:15;;;;;;;9.80;6.43;;;;;;;;;;5036836;28;20376;-90
2021/08/16 02:02:41;;;;;;;8.93;4.60;;;;;;;;;;5018901;28;20116;-90
2021/08/16 02:05:08;;;;;;;10.00;5.63;;;;;;;;;;5018962;28;20028;-89
2021/08/16 02:07:33;;;;;;;6.32;4.75;;;;;;;;;;5036562;28;20080;-91
2021/08/16 02:09:59;;;;;;;8.43;5.70;;;;;;;;;;5036589;28;20026;-90
2021/08/16 02:12:25;;;;;;;7.53;5.13;;;;;;;;;;5018920;28;20087;-90
2021/08/16 02:14:50;;;;;;;7.25;4.03;;;;;;;;;;5018760;28;20116;-90
2021/08/16 02:17:16;;;;;;;5.55;3.45;;;;;;;;;;5018476;28;20128;-89
2021/08/16 02:19:42;;;;;;;6.38;3.53;;;;;;;;;;5036003;28;20029;-92
2021/08/16 02:22:08;;;;;;;7.68;6.30;;;;;;;;;;5017928;28;20030;-90
2021/08/16 02:24:34;;;;;;;9.68;4.38;;;;;;;;;;5018549;28;20029;-89
2021/08/16 02:26:59;;;;;;;7.13;6.18;;;;;;;;;;5036249;28;20104;-89
2021/08/16 02:29:25;;;;;;;9.77;4.63;;;;;;;;;;5036162;28;20033;-88
2021/08/16 02:31:51;;;;;;;8.52;5.00;;;;;;;;;;5018296;28;20052;-87
2021/08/16 02:34:16;;;;;;;7.43;4.57;;;;;;;;;;5036056;28;20030;-89
2021/08/16 02:36:42;;;;;;;8.10;4.72;;;;;;;;;;5035908;28;20032;-90
2021/08/16 02:39:08;;;;;;;8.77;5.50;;;;;;;;;;5018358;28;20022;-89
2021/08/16 02:41:33;;;;;;;9.98;5.43;;;;;;;;;;5018022;28;20029;-88
2021/08/16 02:43:59;;;;;;;7.47;4.30;;;;;;;;;;5035970;28;20021;-87
2021/08/16 02:46:25;;;;;;;6.28;5.57;;;;;;;;;;5035863;28;20530;-89
2021/08/16 02:48:51;;;;;;;7.95;5.70;;;;;;;;;;5018372;28;20416;-88
2021/08/16 02:51:17;;;;;;;8.52;4.22;;;;;;;;;;5036010;28;20071;-88
2021/08/16 02:53:43;;;;;;;8.32;4.55;;;;;;;;;;5018029;28;20034;-89
2021/08/16 02:56:09;;;;;;;8.07;6.18;;;;;;;;;;5018414;28;20079;-90
2021/08/16 02:58:34;;;;;;;8.23;5.53;;;;;;;;;;5029288;28;20041;-87
2021/08/16 03:01:00;;;;;;;9.00;5.45;;;;;;;;;;5060613;28;20025;-88
2021/08/16 03:03:26;;;;;;;8.80;5.80;;;;;;;;;;5060532;28;20009;-89
2021/08/16 03:05:51;;;;;;;7.45;6.00;;;;;;;;;;5041227;28;20026;-91
2021/08/16 03:08:17;;;;;;;8.13;6.68;;;;;;;;;;5021146;28;20021;-89
2021/08/16 03:10:42;;;;;;;7.53;4.80;;;;;;;;;;5037904;28;20039;-90
2021/08/16 03:13:08;;;;;;;6.63;4.65;;;;;;;;;;5034652;28;20022;-87
2021/08/16 03:15:34;;;;;;;7.47;5.32;;;;;;;;;;5017523;28;20601;-89
2021/08/16 03:18:00;;;;;;;9.32;5.78;;;;;;;;;;5035752;28;20073;-88
2021/08/16 03:20:26;;;;;;;6.93;5.72;;;;;;;;;;5017401;28;20083;-87
2021/08/16 03:22:52;;;;;;;9.30;6.15;;;;;;;;;;5035094;28;20033;-87
2021/08/16 03:25:18;;;;;;;6.85;5.50;;;;;;;;;;5035186;28;20032;-86
2021/08/16 03:27:44;;;;;;;10.00;6.07;;;;;;;;;;5035285;28;20100;-85
2021/08/16 03:30:12;;;;;;;10.20;5.65;;;;;;;;;;5017588;28;20022;-89
2021/08/16 03:32:38;;;;;;;9.40;5.38;;;;;;;;;;5016968;28;20129;-88
2021/08/16 03:35:04;;;;;;;11.80;4.97;;;;;;;;;;5035048;28;20120;-86
2021/08/16 03:37:34;;;;;;;7.78;4.28;;;;;;;;;;5035170;28;20101;-88
2021/08/16 03:40:01;;;;;;;7.30;5.13;;;;;;;;;;5034897;28;20525;-88
2021/08/16 03:42:27;;;;;;;9.65;5.32;;;;;;;;;;5034890;28;20033;-90
2021/08/16 03:44:53;;;;;;;7.07;3.50;;;;;;;;;;5037616;28;20055;-89
2021/08/16 03:47:18;;;;;;;8.43;4.35;;;;;;;;;;5034831;28;20029;-90
2021/08/16 03:49:44;;;;;;;7.25;5.88;;;;;;;;;;5035270;28;20072;-89
2021/08/16 03:52:10;;;;;;;5.93;3.50;;;;;;;;;;5035109;28;20021;-90
2021/08/16 03:54:36;;;;;;;6.60;4.97;;;;;;;;;;5035536;28;20025;-92
2021/08/16 03:57:02;;;;;;;5.68;3.40;;;;;;;;;;5017332;28;20025;-90
2021/08/16 03:59:28;;;;;;;7.05;4.05;;;;;;;;;;5033436;28;20034;-89
2021/08/16 04:01:53;;;;;;;8.70;5.72;;;;;;;;;;5036121;28;20041;-91
2021/08/16 04:04:19;;;;;;;7.88;5.47;;;;;;;;;;5016928;28;20083;-90
2021/08/16 04:06:45;;;;;;;7.53;6.65;;;;;;;;;;5034562;28;20104;-90
2021/08/16 04:09:11;;;;;;;6.78;4.18;;;;;;;;;;5017096;28;20025;-88
2021/08/16 04:11:38;;;;;;;5.95;3.80;;;;;;;;;;5017434;28;20481;-88
2021/08/16 04:14:04;;;;;;;6.47;5.25;;;;;;;;;;5034352;28;20516;-87
2021/08/16 04:16:30;;;;;;;5.90;5.03;;;;;;;;;;5034232;28;20045;-82
2021/08/16 04:18:56;;;;;;;7.72;3.88;;;;;;;;;;5034599;28;20545;-83
2021/08/16 04:21:21;;;;;;;6.53;3.65;;;;;;;;;;5034714;28;20104;-85
2021/08/16 04:23:47;;;;;;;5.82;3.33;;;;;;;;;;5034950;28;20369;-85
2021/08/16 04:26:13;;;;;;;7.25;3.88;;;;;;;;;;5034433;28;20029;-87
2021/08/16 04:28:38;;;;;;;6.72;5.25;;;;;;;;;;5034236;28;20052;-86
2021/08/16 04:31:04;;;;;;;6.72;5.18;;;;;;;;;;5034051;28;20025;-86
2021/08/16 04:33:30;;;;;;;4.85;3.45;;;;;;;;;;5016658;28;20065;-83
2021/08/16 04:35:56;;;;;;;6.00;4.85;;;;;;;;;;5034146;28;20037;-83
2021/08/16 04:38:23;;;;;;;7.00;4.40;;;;;;;;;;5033934;28;20026;-85
2021/08/16 04:40:50;;;;;;;5.85;4.43;;;;;;;;;;5033861;28;20032;-85
2021/08/16 04:43:16;;;;;;;6.07;3.63;;;;;;;;;;5015566;28;20362;-83
2021/08/16 04:45:42;;;;;;;7.75;5.53;;;;;;;;;;5033748;28;20443;-85
2021/08/16 04:48:08;;;;;;;6.05;4.55;;;;;;;;;;5033766;28;20041;-85
2021/08/16 04:50:34;;;;;;;5.57;3.83;;;;;;;;;;5033636;28;20108;-79
2021/08/16 04:52:59;;;;;;;7.47;3.78;;;;;;;;;;5033523;28;20036;-80
2021/08/16 04:55:25;;;;;;;7.20;4.90;;;;;;;;;;5033646;28;20022;-81
2021/08/16 04:57:51;;;;;;;10.07;5.13;;;;;;;;;;5033467;28;20049;-79
2021/08/16 05:00:19;;;;;;;7.70;4.68;;;;;;;;;;5033729;28;20025;-80
2021/08/16 05:02:45;;;;;;;6.85;4.35;;;;;;;;;;5033740;28;20067;-80
2021/08/16 05:05:14;;;;;;;6.45;4.38;;;;;;;;;;5033488;28;20029;-81
2021/08/16 05:07:49;;;;;;;6.50;4.68;;;;;;;;;;5033553;28;20104;-79
2021/08/16 05:10:16;;;;;;;9.27;4.95;;;;;;;;;;5033364;28;20029;-82
2021/08/16 05:12:42;;;;;;;6.20;4.10;;;;;;;;;;5033316;28;20026;-80
2021/08/16 05:15:08;;;;;;;6.55;4.57;;;;;;;;;;5033251;28;20478;-81
2021/08/16 05:17:34;;;;;;;5.78;4.72;;;;;;;;;;5033020;28;20072;-81
2021/08/16 05:20:01;;;;;;;5.25;4.18;;;;;;;;;;5033242;28;20052;-80
2021/08/16 05:22:27;;;;;;;5.13;2.85;;;;;;;;;;5033305;28;20051;-80
2021/08/16 05:24:52;;;;;;;6.63;2.97;;;;;;;;;;5033186;28;20262;-80
2021/08/16 05:27:18;;;;;;;7.55;4.15;;;;;;;;;;5033425;28;20032;-80
2021/08/16 05:29:43;;;;;;;6.78;3.40;;;;;;;;;;5033165;28;20018;-80
2021/08/16 05:32:09;;;;;;;6.40;4.95;;;;;;;;;;5033080;28;20160;-79
2021/08/16 05:34:36;;;;;;;5.55;3.90;;;;;;;;;;5033084;28;20018;-80
2021/08/16 05:37:03;;;;;;;8.10;4.40;;;;;;;;;;5033354;28;20037;-79
2021/08/16 05:39:28;;;;;;;6.22;3.45;;;;;;;;;;5033323;28;20083;-80
2021/08/16 05:41:54;;;;;;;10.43;4.85;;;;;;;;;;5033224;28;20064;-80
2021/08/16 05:44:20;;;;;;;5.80;4.57;;;;;;;;;;5033306;28;20101;-79
2021/08/16 05:46:45;;;;;;;5.50;3.17;;;;;;;;;;5033273;28;20025;-79
2021/08/16 05:49:11;;;;;;;6.30;4.45;;;;;;;;;;5032970;28;20482;-79
2021/08/16 05:51:37;;;;;;;6.50;3.22;;;;;;;;;;5033589;28;20109;-79
2021/08/16 05:54:03;;;;;;;6.25;2.65;;;;;;;;;;5032948;28;20085;-79
2021/08/16 05:56:30;;;;;;;5.95;3.63;;;;;;;;;;5036561;28;20052;-79
2021/08/16 05:58:55;;;;;;;5.95;4.00;;;;;;;;;;5036626;28;20043;-78
2021/08/16 06:01:21;;;;;;;4.15;2.67;;;;;;;;;;5036486;28;20037;-79
2021/08/16 06:03:47;;;;;;;9.55;4.25;;;;;;;;;;5036565;28;20055;-79
2021/08/16 06:06:12;;;;;;;7.63;3.67;;;;;;;;;;5036431;28;20041;-78
2021/08/16 06:08:38;;;;;;;7.40;3.60;;;;;;;;;;5036489;28;20022;-79
2021/08/16 06:11:03;;;;;;;8.30;1.63;;;;;;;;;;5036394;28;20417;-79
2021/08/16 06:13:30;;;;;;;6.90;3.67;;;;;;;;;;5036283;28;20025;-79
2021/08/16 06:15:56;;;;;;;7.28;4.35;;;;;;;;;;5036301;28;20067;-79
2021/08/16 06:18:22;;;;;;;5.22;3.40;;;;;;;;;;5036044;28;20038;-81
2021/08/16 06:20:48;;;;;;;6.38;4.15;;;;;;;;;;5018575;28;20466;-81
2021/08/16 06:23:13;;;;;;;5.38;2.20;;;;;;;;;;5036233;28;20025;-81
2021/08/16 06:25:39;;;;;;;7.90;3.10;;;;;;;;;;5036014;28;20032;-80
2021/08/16 06:28:05;;;;;;;6.05;3.50;;;;;;;;;;5036170;28;20029;-80
2021/08/16 06:30:30;;;;;;;8.23;4.30;;;;;;;;;;5036090;28;20488;-80
2021/08/16 06:32:56;;;;;;;8.27;4.25;;;;;;;;;;5036075;28;20080;-80
2021/08/16 06:35:22;;;;;;;9.13;4.65;;;;;;;;;;5036158;28;20444;-79
2021/08/16 06:37:48;;;;;;;6.70;1.83;;;;;;;;;;5018264;28;20025;-81
2021/08/16 06:40:15;;;;;;;10.05;5.47;;;;;;;;;;5018549;28;20091;-80
2021/08/16 06:42:41;;;;;;;5.63;2.22;;;;;;;;;;5035794;28;20031;-80
2021/08/16 06:45:07;;;;;;;9.50;2.67;;;;;;;;;;5036140;28;20036;-83
2021/08/16 06:47:33;;;;;;;8.70;3.13;;;;;;;;;;5035944;28;20033;-82
2021/08/16 06:49:59;;;;;;;10.35;1.98;;;;;;;;;;5035905;28;20026;-81
2021/08/16 06:52:25;;;;;;;5.25;1.67;;;;;;;;;;5035632;28;20029;-82
2021/08/16 06:54:50;;;;;;;9.00;4.38;;;;;;;;;;5035610;28;20056;-83
2021/08/16 06:57:16;;;;;;;7.15;2.53;;;;;;;;;;5035739;28;20026;-82
2021/08/16 06:59:42;;;;;;;8.13;2.75;;;;;;;;;;5017802;28;20025;-82
2021/08/16 07:02:08;;;;;;;6.22;2.72;;;;;;;;;;5035338;28;20034;-82
2021/08/16 07:04:35;;;;;;;9.02;4.78;;;;;;;;;;5035645;28;20026;-82
2021/08/16 07:07:01;;;;;;;6.28;2.15;;;;;;;;;;5017226;28;20030;-81
2021/08/16 07:09:26;;;;;;;4.53;1.75;;;;;;;;;;5035330;28;20092;-80
2021/08/16 07:11:53;;;;;;;7.93;3.00;;;;;;;;;;5035314;28;20025;-80
2021/08/16 07:14:20;;;;;;;6.80;2.97;;;;;;;;;;5035221;28;20071;-80
2021/08/16 07:16:46;;;;;;;6.22;2.38;;;;;;;;;;5035053;28;20115;-79
2021/08/16 07:19:11;;;;;;;9.27;2.65;;;;;;;;;;5035180;28;20470;-79
2021/08/16 07:21:37;;;;;;;5.03;1.70;;;;;;;;;;5034970;28;20473;-80
2021/08/16 07:24:03;;;;;;;5.88;2.63;;;;;;;;;;5035202;28;20036;-79
2021/08/16 07:26:29;;;;;;;9.63;4.85;;;;;;;;;;5036152;28;20022;-78
2021/08/16 07:28:54;;;;;;;5.65;4.30;;;;;;;;;;5039633;28;20032;-80
2021/08/16 07:31:20;;;;;;;8.68;4.43;;;;;;;;;;5036750;28;20032;-81
2021/08/16 07:33:46;;;;;;;8.07;4.43;;;;;;;;;;5052931;28;20025;-80
2021/08/16 07:36:11;;;;;;;6.82;3.20;;;;;;;;;;5034665;28;20025;-79
2021/08/16 07:38:37;;;;;;;12.60;2.78;;;;;;;;;;5051063;28;20462;-80
2021/08/16 07:41:03;;;;;;;6.78;2.08;;;;;;;;;;5018157;28;20064;-80
2021/08/16 07:43:28;;;;;;;10.25;4.63;;;;;;;;;;5036129;28;20061;-79
2021/08/16 07:45:54;;;;;;;8.52;3.00;;;;;;;;;;5035562;28;20098;-79
2021/08/16 07:48:20;;;;;;;7.15;2.42;;;;;;;;;;5034789;28;20025;-80
2021/08/16 07:50:45;;;;;;;5.50;2.92;;;;;;;;;;5016913;28;20431;-80
2021/08/16 07:53:11;;;;;;;6.15;2.90;;;;;;;;;;5033360;28;20375;-78
2021/08/16 07:55:37;;;;;;;6.95;3.13;;;;;;;;;;5034477;28;20465;-79
2021/08/16 07:58:02;;;;;;;9.00;4.32;;;;;;;;;;5034424;28;20049;-79
2021/08/16 08:00:28;;;;;;;7.57;5.13;;;;;;;;;;5034316;28;20025;-78
2021/08/16 08:02:54;;;;;;;11.98;4.80;;;;;;;;;;5034882;28;20091;-86
2021/08/16 08:05:21;;;;;;;5.70;2.72;;;;;;;;;;5017089;28;20067;-85
2021/08/16 08:07:48;;;;;;;6.72;2.90;;;;;;;;;;5034816;28;20037;-84
2021/08/16 08:10:16;;;;;;;6.68;3.05;;;;;;;;;;5035231;28;20440;-83
2021/08/16 08:12:45;;;;;;;7.93;4.78;;;;;;;;;;5017477;28;20036;-87
2021/08/16 08:15:11;;;;;;;7.20;4.53;;;;;;;;;;5035048;28;20064;-85
2021/08/16 08:17:37;;;;;;;5.10;2.15;;;;;;;;;;5033523;28;20042;-83
2021/08/16 08:20:05;;;;;;;6.88;2.75;;;;;;;;;;5033640;28;20432;-81
2021/08/16 08:22:31;;;;;;;8.80;4.32;;;;;;;;;;5033872;28;20496;-80
2021/08/16 08:24:57;;;;;;;8.82;5.07;;;;;;;;;;5034025;28;20101;-80
2021/08/16 08:27:23;;;;;;;4.68;2.78;;;;;;;;;;5033946;28;20457;-79
2021/08/16 08:29:49;;;;;;;6.82;3.25;;;;;;;;;;5033854;28;20029;-79
2021/08/16 08:32:15;;;;;;;6.60;3.03;;;;;;;;;;5034338;28;20049;-79
2021/08/16 08:34:40;;;;;;;5.50;3.88;;;;;;;;;;5033794;28;20021;-79
2021/08/16 08:37:10;;;;;;;8.50;4.30;;;;;;;;;;5033676;28;20053;-79
2021/08/16 08:39:39;;;;;;;5.38;2.60;;;;;;;;;;5033795;28;20029;-78
2021/08/16 08:42:06;;;;;;;7.68;2.90;;;;;;;;;;5033619;28;20021;-80
2021/08/16 08:44:32;;;;;;;5.40;3.75;;;;;;;;;;5033724;28;20026;-79
2021/08/16 08:46:59;;;;;;;6.10;4.43;;;;;;;;;;5033614;28;20358;-80
2021/08/16 08:49:24;;;;;;;7.75;4.50;;;;;;;;;;5033807;28;20029;-79
2021/08/16 08:51:50;;;;;;;11.23;4.90;;;;;;;;;;5033575;28;20057;-79
2021/08/16 08:54:19;;;;;;;8.05;4.80;;;;;;;;;;5034029;28;20040;-81
2021/08/16 08:56:44;;;;;;;5.88;2.50;;;;;;;;;;5033640;28;20067;-80
2021/08/16 08:59:11;;;;;;;6.55;4.30;;;;;;;;;;5033537;28;20025;-84
2021/08/16 09:01:48;;;;;;;8.63;4.22;;;;;;;;;;5016109;28;20056;-81
2021/08/16 09:04:14;;;;;;;4.88;2.65;;;;;;;;;;5033557;28;20168;-80
2021/08/16 09:06:42;;;;;;;7.05;4.75;;;;;;;;;;5033404;28;20037;-82
2021/08/16 09:09:08;;;;;;;8.13;2.03;;;;;;;;;;5033337;28;20056;-81
2021/08/16 09:11:34;;;;;;;5.82;3.03;;;;;;;;;;5033408;28;20045;-80
2021/08/16 09:14:03;;;;;;;5.65;2.58;;;;;;;;;;5033280;28;20064;-79
2021/08/16 09:16:36;;;;;;;7.22;2.97;;;;;;;;;;5015281;28;20049;-80
2021/08/16 09:19:15;;;;;;;6.97;4.80;;;;;;;;;;5033538;28;20151;-81
2021/08/16 09:21:45;;;;;;;5.60;2.45;;;;;;;;;;5033424;28;20060;-81
2021/08/16 09:24:11;;;;;;;6.10;2.53;;;;;;;;;;5033245;28;20053;-82
2021/08/16 09:26:40;;;;;;;6.80;3.92;;;;;;;;;;5033205;28;20500;-80
2021/08/16 09:29:15;;;;;;;7.03;3.05;;;;;;;;;;5033209;28;20044;-79
2021/08/16 09:32:02;;;;;;;5.15;2.33;;;;;;;;;;5020035;28;20026;-79
2021/08/16 09:34:34;;;;;;;8.30;2.67;;;;;;;;;;5037182;28;20053;-79
2021/08/16 09:37:02;;;;;;;5.90;1.83;;;;;;;;;;5037159;28;20068;-79
2021/08/16 09:39:33;;;;;;;5.13;2.90;;;;;;;;;;5037042;28;20029;-79
2021/08/16 09:42:01;;;;;;;11.32;2.83;;;;;;;;;;5036832;28;20082;-80
2021/08/16 09:44:28;;;;;;;8.30;2.67;;;;;;;;;;5037024;28;20498;-80
2021/08/16 09:47:06;;;;;;;6.53;3.63;;;;;;;;;;5042204;28;20160;-80
2021/08/16 09:49:34;;;;;;;6.50;3.83;;;;;;;;;;5036482;28;20112;-82
2021/08/16 09:52:10;;;;;;;4.40;1.35;;;;;;;;;;5037337;28;20017;-79
2021/08/16 09:54:37;;;;;;;6.47;4.00;;;;;;;;;;5019143;28;20026;-79
2021/08/16 09:57:05;;;;;;;5.38;3.95;;;;;;;;;;5019051;28;20083;-81
2021/08/16 09:59:36;;;;;;;6.72;4.30;;;;;;;;;;5037154;28;20469;-78
2021/08/16 10:02:02;;;;;;;5.40;1.92;;;;;;;;;;5036610;28;20052;-78
2021/08/16 10:04:30;;;;;;;7.20;2.00;;;;;;;;;;5036598;28;20447;-81
2021/08/16 10:06:59;;;;;;;6.47;4.25;;;;;;;;;;5019095;28;20462;-80
2021/08/16 10:09:25;;;;;;;;;;;;;;;;;;5018973;28;20120;-79
2021/08/16 10:11:53;;;;;;;7.05;1.63;;;;;;;;;;5036732;28;20292;-80
2021/08/16 10:14:22;;;;;;;7.55;1.70;;;;;;;;;;5036266;28;20041;-79
2021/08/16 10:16:52;;;;;;;6.45;2.05;;;;;;;;;;5036265;28;20042;-79
2021/08/16 10:19:25;;;;;;;4.80;1.80;;;;;;;;;;5036130;28;20032;-80
2021/08/16 10:21:59;;;;;;;6.55;2.28;;;;;;;;;;5018318;28;20462;-79
2021/08/16 10:24:29;;;;;;;5.35;2.35;;;;;;;;;;5036212;28;20021;-80
2021/08/16 10:26:56;;;;;;;4.47;2.58;;;;;;;;;;5036185;28;20108;-80
2021/08/16 10:29:22;;;;;;;4.07;1.95;;;;;;;;;;5035680;28;20025;-80
2021/08/16 10:31:50;;;;;;;6.85;2.40;;;;;;;;;;5017570;28;20029;-81
2021/08/16 10:34:36;;;;;;;5.75;2.00;;;;;;;;;;5035913;28;20026;-80
2021/08/16 10:37:09;;;;;;;4.38;2.00;;;;;;;;;;5018515;28;20067;-79
2021/08/16 10:39:42;;;;;;;4.28;1.83;;;;;;;;;;5035926;28;20083;-81
2021/08/16 10:42:10;;;;;;;7.20;1.85;;;;;;;;;;5035020;28;20079;-80
2021/08/16 10:44:41;;;;;;;4.65;1.45;;;;;;;;;;5036240;28;20515;-84
2021/08/16 10:47:09;;;;;;;4.28;1.52;;;;;;;;;;5037194;28;20125;-81
2021/08/16 10:49:37;;;;;;;5.00;1.88;;;;;;;;;;5036310;28;20022;-90
2021/08/16 10:52:03;;;;;;;4.03;1.25;;;;;;;;;;5036327;28;20534;-84
2021/08/16 10:54:32;;;;;;;5.63;2.08;;;;;;;;;;5036473;28;20049;-90
2021/08/16 10:56:58;;;;;;;4.07;1.38;;;;;;;;;;5035647;28;20041;-83
2021/08/16 10:59:26;;;;;;;5.30;2.42;;;;;;;;;;5017560;28;20116;-82
2021/08/16 11:01:53;;;;;;;6.28;1.42;;;;;;;;;;5035367;28;20059;-83
2021/08/16 11:04:30;;;;;;;6.75;1.80;;;;;;;;;;5018209;28;20028;-91
2021/08/16 11:07:00;;;;;;;3.67;1.60;;;;;;;;;;5036102;28;20576;-88
2021/08/16 11:09:29;;;;;;;5.72;2.20;;;;;;;;;;5035501;28;20026;-85
2021/08/16 11:12:06;;;;;;;8.05;2.65;;;;;;;;;;5036076;28;20075;-87
2021/08/16 11:14:35;;;;;;;3.88;1.50;;;;;;;;;;5035914;28;20099;-84
2021/08/16 11:17:04;;;;;;;4.97;2.22;;;;;;;;;;5020036;28;20139;-82
2021/08/16 11:19:43;;;;;;;;;;;;;;;;;;5038826;28;20104;-83
2021/08/16 11:22:09;;;;;;;4.32;1.85;;;;;;;;;;5036640;28;19921;-88
2021/08/16 11:24:37;;;;;;;6.55;1.67;;;;;;;;;;5036041;28;20034;-90
2021/08/16 11:27:09;;;;;;;7.30;1.95;;;;;;;;;;5021681;28;20540;-90
2021/08/16 11:29:36;;;;;;;13.77;2.00;;;;;;;;;;5036585;28;20033;-88
2021/08/16 11:32:05;;;;;;;6.53;1.88;;;;;;;;;;5036428;28;20101;-88
2021/08/16 11:34:32;;;;;;;7.75;2.00;;;;;;;;;;5036285;28;20080;-90
2021/08/16 11:36:58;;;;;;;4.07;1.88;;;;;;;;;;5036030;28;20053;-88
2021/08/16 11:39:29;;;;;;;6.07;1.42;;;;;;;;;;5035853;28;20041;-88
2021/08/16 11:42:02;;;;;;;5.53;1.85;;;;;;;;;;5036146;28;20478;-88
2021/08/16 11:44:30;;;;;;;4.07;2.05;;;;;;;;;;5036409;28;20068;-83
2021/08/16 11:47:04;;;;;;;5.35;2.20;;;;;;;;;;5036462;28;20061;-80
2021/08/16 11:49:38;;;;;;;6.80;1.88;;;;;;;;;;5036640;28;20017;-86
2021/08/16 11:52:06;;;;;;;5.82;2.22;;;;;;;;;;5047073;28;20017;-90
2021/08/16 11:54:34;;;;;;;5.07;1.42;;;;;;;;;;5032920;28;20025;-90
2021/08/16 11:57:10;;;;;;;4.47;1.95;;;;;;;;;;5049995;28;20025;-89
2021/08/16 11:59:54;;;;;;;3.08;1.58;;;;;;;;;;5037537;28;20041;-81
2021/08/16 12:02:22;;;;;;;6.50;1.67;;;;;;;;;;5023234;28;20076;-80
2021/08/16 12:04:54;;;;;;;4.75;1.88;;;;;;;;;;5029408;28;20026;-86
2021/08/16 12:07:26;;;;;;;4.25;1.15;;;;;;;;;;5044128;28;20032;-80
2021/08/16 12:09:53;;;;;;;8.32;1.90;;;;;;;;;;5051856;28;20013;-81
2021/08/16 12:12:39;;;;;;;5.28;2.78;;;;;;;;;;5036700;28;20021;-81
2021/08/16 12:15:17;;;;;;;7.38;1.27;;;;;;;;;;5068366;28;20028;-80
2021/08/16 12:17:44;;;;;;;5.47;1.58;;;;;;;;;;5039946;28;20477;-83
2021/08/16 12:20:14;;;;;;;4.35;1.75;;;;;;;;;;5037028;28;20021;-83
2021/08/16 12:22:50;;;;;;;3.40;1.50;;;;;;;;;;5052193;28;20028;-83
2021/08/16 12:25:16;;;;;;;11.18;1.77;;;;;;;;;;5044517;28;20482;-81
2021/08/16 12:27:42;;;;;;;4.45;1.63;;;;;;;;;;5042927;28;20028;-82
2021/08/16 12:30:17;;;;;;;5.38;1.67;;;;;;;;;;5036504;28;20022;-84
2021/08/16 12:32:43;;;;;;;4.32;1.60;;;;;;;;;;5017723;28;20490;-82
2021/08/16 12:35:20;;;;;;;4.60;1.35;;;;;;;;;;5035060;28;20087;-81
2021/08/16 12:37:51;;;;;;;5.25;1.65;;;;;;;;;;5034564;28;20032;-82
2021/08/16 12:40:19;;;;;;;4.93;1.63;;;;;;;;;;5034723;28;20056;-82
2021/08/16 12:42:53;;;;;;;5.50;1.83;;;;;;;;;;5034169;28;20063;-82
2021/08/16 12:45:19;;;;;;;4.03;1.35;;;;;;;;;;5033857;28;20044;-82
2021/08/16 12:47:45;;;;;;;4.47;1.48;;;;;;;;;;5017883;28;20029;-84
2021/08/16 12:50:11;;;;;;;3.60;1.63;;;;;;;;;;5034114;28;20035;-83
2021/08/16 12:52:38;;;;;;;6.05;1.13;;;;;;;;;;5018149;28;20567;-86
2021/08/16 12:55:07;;;;;;;4.88;1.75;;;;;;;;;;5038086;28;20025;-87
2021/08/16 12:57:33;;;;;;;3.45;1.58;;;;;;;;;;5017103;28;20034;-86
2021/08/16 12:59:58;;;;;;;4.22;1.73;;;;;;;;;;5016286;28;20374;-87
2021/08/16 13:02:28;;;;;;;4.22;1.63;;;;;;;;;;5020100;28;20522;-86
2021/08/16 13:04:55;;;;;;;4.15;1.15;;;;;;;;;;5042123;28;20084;-85
2021/08/16 13:07:24;;;;;;;4.47;3.30;;;;;;;;;;5023593;28;20028;-90
2021/08/16 13:09:49;;;;;;;4.28;1.30;;;;;;;;;;5019090;28;20037;-89
2021/08/16 13:12:15;;;;;;;3.15;1.65;;;;;;;;;;5034193;28;20025;-85
2021/08/16 13:14:43;;;;;;;6.80;1.58;;;;;;;;;;5015970;28;20025;-86
2021/08/16 13:17:09;;;;;;;4.30;1.77;;;;;;;;;;5016546;28;20493;-84
2021/08/16 13:19:35;;;;;;;3.40;1.40;;;;;;;;;;5035900;28;20034;-84
2021/08/16 13:22:02;;;;;;;3.05;1.00;;;;;;;;;;5018198;28;20057;-80
2021/08/16 13:24:28;;;;;;;3.03;1.10;;;;;;;;;;5045763;28;20025;-78
2021/08/16 13:27:04;;;;;;;4.72;1.27;;;;;;;;;;5046934;28;20033;-84
2021/08/16 13:29:30;;;;;;;3.90;1.55;;;;;;;;;;5055254;28;20032;-82
2021/08/16 13:31:56;;;;;;;2.92;1.45;;;;;;;;;;5046167;28;20029;-79
2021/08/16 13:34:25;;;;;;;5.43;1.17;;;;;;;;;;5035608;28;20021;-87
2021/08/16 13:36:53;;;;;;;2.60;0.98;;;;;;;;;;5035276;28;20037;-83
2021/08/16 13:39:20;;;;;;;6.28;1.17;;;;;;;;;;5032935;28;20072;-83
2021/08/16 13:41:46;;;;;;;3.45;1.23;;;;;;;;;;5034817;28;20033;-89
2021/08/16 13:44:12;;;;;;;3.38;0.85;;;;;;;;;;5037623;28;20025;-89
2021/08/16 13:46:38;;;;;;;2.38;1.10;;;;;;;;;;5020398;28;20025;-85
2021/08/16 13:49:04;;;;;;;2.55;0.60;;;;;;;;;;5033815;28;20446;-82
2021/08/16 13:51:30;;;;;;;5.10;1.38;;;;;;;;;;5015280;28;20397;-85
2021/08/16 13:53:55;;;;;;;4.53;1.60;;;;;;;;;;5015303;28;20112;-84
2021/08/16 13:56:21;;;;;;;5.97;1.73;;;;;;;;;;5014925;28;20393;-84
2021/08/16 13:58:47;;;;;;;4.57;0.93;;;;;;;;;;5033019;28;20026;-83
2021/08/16 14:01:16;;;;;;;4.47;3.13;;;;;;;;;;5033583;28;20032;-85
2021/08/16 14:03:41;;;;;;;3.30;1.55;;;;;;;;;;5033194;28;20469;-84
2021/08/16 14:06:07;;;;;;;2.85;1.45;;;;;;;;;;5032920;28;20105;-85
2021/08/16 14:08:33;;;;;;;6.28;1.50;;;;;;;;;;5033145;28;20025;-84
2021/08/16 14:11:00;;;;;;;8.27;1.80;;;;;;;;;;5032956;28;20029;-84
2021/08/16 14:13:28;;;;;;;4.25;1.25;;;;;;;;;;5033036;28;20512;-89
2021/08/16 14:15:54;;;;;;;4.40;1.45;;;;;;;;;;5014691;28;20033;-86
2021/08/16 14:18:20;;;;;;;3.75;1.20;;;;;;;;;;5035348;28;20049;-86
2021/08/16 14:20:45;;;;;;;3.03;0.90;;;;;;;;;;5035898;28;20018;-91
2021/08/16 14:23:11;;;;;;;8.60;1.80;;;;;;;;;;5036637;28;20028;-87
2021/08/16 14:25:37;;;;;;;3.70;0.75;;;;;;;;;;5036089;28;20485;-85
2021/08/16 14:28:04;;;;;;;5.63;1.90;;;;;;;;;;5036363;28;20072;-86
2021/08/16 14:30:30;;;;;;;5.32;0.70;;;;;;;;;;5036201;28;20022;-86
2021/08/16 14:32:55;;;;;;;3.17;0.70;;;;;;;;;;5036226;28;20033;-85
2021/08/16 14:35:21;;;;;;;6.53;2.90;;;;;;;;;;5035851;28;20041;-85
2021/08/16 14:37:47;;;;;;;2.80;0.75;;;;;;;;;;5018244;28;20025;-87
2021/08/16 14:40:13;;;;;;;4.25;3.03;;;;;;;;;;5036733;28;20022;-89
2021/08/16 14:42:40;;;;;;;6.43;1.40;;;;;;;;;;5036216;28;20424;-87